createdAt,value
2018-04-15T00:02:09.994Z,24.67
2018-04-15T00:04:37.547Z,23.83
2018-04-15T00:07:05.034Z,24.13
2018-04-15T00:09:32.526Z,22.10
2018-04-15T00:12:00.079Z,20.20
2018-04-15T00:14:27.583Z,19.20
2018-04-15T00:16:55.078Z,18.10
2018-04-15T00:19:22.646Z,17.40
2018-04-15T00:21:50.147Z,18.13
2018-04-15T00:24:18.420Z,16.77
2018-04-15T00:26:46.719Z,19.37
2018-04-15T00:29:14.214Z,17.67
2018-04-15T00:31:41.710Z,19.93
2018-04-15T00:34:09.504Z,18.37
2018-04-15T00:36:36.999Z,18.83
2018-04-15T00:39:06.170Z,20.97
2018-04-15T00:41:33.727Z,20.20
2018-04-15T00:44:01.226Z,20.40
2018-04-15T00:46:28.727Z,20.40
2018-04-15T00:48:59.162Z,20.37
2018-04-15T00:51:26.662Z,20.23
2018-04-15T00:54:06.652Z,19.67
2018-04-15T00:56:34.152Z,20.27
2018-04-15T00:59:01.651Z,19.37
2018-04-15T01:01:29.216Z,21.73
2018-04-15T01:03:56.722Z,21.60
2018-04-15T01:06:24.231Z,22.30
2018-04-15T01:08:51.775Z,23.80
2018-04-15T01:11:19.287Z,20.93
2018-04-15T01:13:46.806Z,22.17
2018-04-15T01:16:14.352Z,20.93
2018-04-15T01:18:41.854Z,20.77
2018-04-15T01:21:09.371Z,21.13
2018-04-15T01:23:36.962Z,20.43
2018-04-15T01:26:04.462Z,21.40
2018-04-15T01:28:31.967Z,20.83
2018-04-15T01:30:59.511Z,21.40
2018-04-15T01:33:27.016Z,21.50
2018-04-15T01:35:54.514Z,21.50
2018-04-15T01:38:22.806Z,22.70
2018-04-15T01:40:50.318Z,22.10
2018-04-15T01:50:01.307Z,21.80
2018-04-15T01:52:28.807Z,21.47
2018-04-15T01:54:56.439Z,22.33
2018-04-15T01:57:23.975Z,21.00
2018-04-15T01:59:51.466Z,23.63
2018-04-15T02:02:18.960Z,26.20
2018-04-15T02:04:46.515Z,24.00
2018-04-15T02:07:14.015Z,24.93
2018-04-15T02:09:41.511Z,24.63
2018-04-15T02:12:09.070Z,25.37
2018-04-15T02:14:36.567Z,25.03
2018-04-15T02:17:04.063Z,25.13
2018-04-15T02:19:31.603Z,26.60
2018-04-15T02:21:59.871Z,25.40
2018-04-15T02:24:27.370Z,26.57
2018-04-15T02:26:54.903Z,28.60
2018-04-15T02:29:23.163Z,30.20
2018-04-15T02:31:50.654Z,30.87
2018-04-15T02:34:18.215Z,30.80
2018-04-15T02:36:46.470Z,30.00
2018-04-15T02:39:13.967Z,32.87
2018-04-15T02:41:41.497Z,33.37
2018-04-15T02:44:09.775Z,35.73
2018-04-15T02:46:37.276Z,31.63
2018-04-15T02:49:04.803Z,35.30
2018-04-15T02:51:33.076Z,33.43
2018-04-15T02:54:00.575Z,32.93
2018-04-15T02:56:28.890Z,31.93
2018-04-15T02:58:56.402Z,29.93
2018-04-15T03:01:23.931Z,29.00
2018-04-15T03:03:52.224Z,27.57
2018-04-15T03:06:20.508Z,25.53
2018-04-15T03:08:48.011Z,27.77
2018-04-15T03:11:15.589Z,25.93
2018-04-15T03:13:43.082Z,28.67
2018-04-15T03:16:11.343Z,29.33
2018-04-15T03:18:38.908Z,27.87
2018-04-15T03:21:06.410Z,30.33
2018-04-15T03:23:33.902Z,29.47
2018-04-15T03:26:01.445Z,30.33
2018-04-15T03:28:28.951Z,28.03
2018-04-15T03:30:56.455Z,28.73
2018-04-15T03:33:24.031Z,29.43
2018-04-15T03:35:51.536Z,29.77
2018-04-15T03:38:19.035Z,32.20
2018-04-15T03:40:46.562Z,32.13
2018-04-15T03:43:14.823Z,30.43
2018-04-15T03:45:42.316Z,34.80
2018-04-15T03:48:09.855Z,35.93
2018-04-15T03:50:37.354Z,33.57
2018-04-15T03:53:04.863Z,35.03
2018-04-15T03:55:32.435Z,38.00
2018-04-15T03:57:59.957Z,38.97
2018-04-15T04:00:27.472Z,35.83
2018-04-15T04:02:55.019Z,36.67
2018-04-15T04:05:23.282Z,34.23
2018-04-15T04:07:51.675Z,38.40
2018-04-15T04:10:19.979Z,37.97
2018-04-15T04:12:47.471Z,34.63
2018-04-15T04:15:14.962Z,37.40
2018-04-15T04:17:54.152Z,38.07
2018-04-15T04:20:33.374Z,40.30
2018-04-15T04:23:12.715Z,41.17
2018-04-15T04:26:00.755Z,39.67
2018-04-15T04:28:28.303Z,36.63
2018-04-15T04:30:56.566Z,35.00
2018-04-15T04:33:24.076Z,36.73
2018-04-15T04:35:51.606Z,37.57
2018-04-15T04:38:19.867Z,37.30
2018-04-15T04:40:48.146Z,39.77
2018-04-15T04:43:15.711Z,39.83
2018-04-15T04:45:43.987Z,42.50
2018-04-15T04:48:11.483Z,38.50
2018-04-15T04:50:39.014Z,37.30
2018-04-15T04:53:06.525Z,36.90
2018-04-15T04:55:34.032Z,32.30
2018-04-15T04:58:02.347Z,36.10
2018-04-15T05:00:29.842Z,33.27
2018-04-15T05:02:57.339Z,32.23
2018-04-15T05:05:25.622Z,30.97
2018-04-15T05:07:53.891Z,30.33
2018-04-15T05:10:21.390Z,33.40
2018-04-15T05:12:48.956Z,29.17
2018-04-15T05:15:16.450Z,29.90
2018-04-15T05:17:43.950Z,29.40
2018-04-15T05:20:11.491Z,29.27
2018-04-15T05:22:38.983Z,29.43
2018-04-15T05:25:06.492Z,27.00
2018-04-15T05:27:34.015Z,28.40
2018-04-15T05:30:01.519Z,26.23
2018-04-15T05:32:29.014Z,30.93
2018-04-15T05:34:56.583Z,27.63
2018-04-15T05:37:24.103Z,25.47
2018-04-15T05:39:51.598Z,25.03
2018-04-15T05:42:19.136Z,26.70
2018-04-15T05:44:47.399Z,27.97
2018-04-15T05:47:14.887Z,30.73
2018-04-15T05:49:42.426Z,28.63
2018-04-15T05:52:10.706Z,27.80
2018-04-15T05:54:38.205Z,30.40
2018-04-15T05:57:05.815Z,30.20
2018-04-15T05:59:33.330Z,29.97
2018-04-15T06:02:00.830Z,31.40
2018-04-15T06:04:28.362Z,30.03
2018-04-15T06:06:55.863Z,33.03
2018-04-15T06:09:23.358Z,32.03
2018-04-15T06:11:50.900Z,30.70
2018-04-15T06:14:18.413Z,28.87
2018-04-15T06:16:45.918Z,33.83
2018-04-15T06:19:13.478Z,31.93
2018-04-15T06:21:41.738Z,31.53
2018-04-15T06:24:09.234Z,34.47
2018-04-15T06:26:36.771Z,33.47
2018-04-15T06:29:04.288Z,38.00
2018-04-15T06:31:31.793Z,34.50
2018-04-15T06:33:59.338Z,31.10
2018-04-15T06:36:26.830Z,31.23
2018-04-15T06:38:54.322Z,33.13
2018-04-15T06:41:21.878Z,30.63
2018-04-15T06:43:49.383Z,31.80
2018-04-15T06:46:16.919Z,33.33
2018-04-15T06:48:47.467Z,35.30
2018-04-15T06:51:15.011Z,33.40
2018-04-15T06:53:42.519Z,32.43
2018-04-15T06:56:10.780Z,33.33
2018-04-15T06:58:38.343Z,29.73
2018-04-15T07:01:05.837Z,33.17
2018-04-15T07:03:33.351Z,31.37
2018-04-15T07:06:00.895Z,34.47
2018-04-15T07:08:28.396Z,35.93
2018-04-15T07:10:56.659Z,32.47
2018-04-15T07:13:24.174Z,34.70
2018-04-15T07:15:51.678Z,31.87
2018-04-15T07:18:19.246Z,36.90
2018-04-15T07:20:46.743Z,35.17
2018-04-15T07:23:14.238Z,30.50
2018-04-15T07:25:41.769Z,30.30
2018-04-15T07:28:09.274Z,32.23
2018-04-15T07:30:36.774Z,33.03
2018-04-15T07:33:04.324Z,34.33
2018-04-15T07:35:32.583Z,32.33
2018-04-15T07:38:00.086Z,33.60
2018-04-15T07:40:27.614Z,32.37
2018-04-15T07:42:55.885Z,35.27
2018-04-15T07:45:23.400Z,34.50
2018-04-15T07:47:51.714Z,31.80
2018-04-15T07:50:19.210Z,35.13
2018-04-15T07:52:46.710Z,35.40
2018-04-15T07:55:14.255Z,36.63
2018-04-15T07:57:41.798Z,37.37
2018-04-15T08:00:09.342Z,37.60
2018-04-15T08:02:36.846Z,39.80
2018-04-15T08:05:04.350Z,42.23
2018-04-15T08:07:31.956Z,39.87
2018-04-15T08:09:59.455Z,42.83
2018-04-15T08:12:26.950Z,39.47
2018-04-15T08:14:54.531Z,38.67
2018-04-15T08:17:22.028Z,40.30
2018-04-15T08:19:49.711Z,36.37
2018-04-15T08:22:17.310Z,36.53
2018-04-15T08:24:44.894Z,36.13
2018-04-15T08:27:12.391Z,34.13
2018-04-15T08:29:39.935Z,34.50
2018-04-15T08:32:07.441Z,34.67
2018-04-15T08:34:35.710Z,30.60
2018-04-15T08:37:03.217Z,29.43
2018-04-15T08:39:30.718Z,33.43
2018-04-15T08:41:58.287Z,32.57
2018-04-15T08:44:25.782Z,31.50
2018-04-15T08:46:53.283Z,31.50
2018-04-15T08:49:22.843Z,31.80
2018-04-15T08:51:50.339Z,33.53
2018-04-15T08:54:17.834Z,32.03
2018-04-15T08:56:45.413Z,31.20
2018-04-15T08:59:13.018Z,29.83
2018-04-15T09:01:40.557Z,29.90
2018-04-15T09:04:08.091Z,31.73
2018-04-15T09:06:35.590Z,31.07
2018-04-15T09:09:03.102Z,30.27
2018-04-15T09:11:31.492Z,32.10
2018-04-15T09:13:59.759Z,33.07
2018-04-15T09:16:27.359Z,34.90
2018-04-15T09:18:54.883Z,32.37
2018-04-15T09:21:22.386Z,32.57
2018-04-15T09:23:49.893Z,31.00
2018-04-15T09:26:17.430Z,32.33
2018-04-15T09:28:44.923Z,32.10
2018-04-15T09:31:12.456Z,33.17
2018-04-15T09:33:40.051Z,33.57
2018-04-15T09:36:07.552Z,33.77
2018-04-15T09:38:35.126Z,32.93
2018-04-15T09:41:02.637Z,30.53
2018-04-15T09:43:30.142Z,30.97
2018-04-15T09:45:57.648Z,30.63
2018-04-15T09:48:25.143Z,30.87
2018-04-15T09:50:52.683Z,30.13
2018-04-15T09:53:20.182Z,33.70
2018-04-15T09:55:47.679Z,34.53
2018-04-15T09:58:15.250Z,35.27
2018-04-15T10:00:42.969Z,37.23
2018-04-15T10:03:10.475Z,40.00
2018-04-15T10:05:37.994Z,39.23
2018-04-15T10:08:05.491Z,40.37
2018-04-15T10:10:32.993Z,36.77
2018-04-15T10:13:00.543Z,37.43
2018-04-15T10:15:28.814Z,39.17
2018-04-15T10:17:56.315Z,34.23
2018-04-15T10:20:23.890Z,38.70
2018-04-15T10:22:51.399Z,38.23
2018-04-15T10:25:19.678Z,37.30
2018-04-15T10:27:47.984Z,37.40
2018-04-15T10:30:15.479Z,36.07
2018-04-15T10:32:42.997Z,36.40
2018-04-15T10:35:10.514Z,36.03
2018-04-15T10:37:38.009Z,38.07
2018-04-15T10:40:05.531Z,37.03
2018-04-15T10:42:33.079Z,37.47
2018-04-15T10:45:00.590Z,35.33
2018-04-15T10:47:28.864Z,35.73
2018-04-15T10:49:56.411Z,35.63
2018-04-15T10:52:24.698Z,37.53
2018-04-15T10:54:52.199Z,38.20
2018-04-15T10:57:19.714Z,35.93
2018-04-15T10:59:48.004Z,36.50
2018-04-15T11:02:15.548Z,34.57
2018-04-15T11:04:43.833Z,34.90
2018-04-15T11:07:11.358Z,38.20
2018-04-15T11:09:38.901Z,36.63
2018-04-15T11:12:06.427Z,34.47
2018-04-15T11:14:33.935Z,35.40
2018-04-15T11:17:01.479Z,34.43
2018-04-15T11:19:29.746Z,33.77
2018-04-15T11:21:57.252Z,32.30
2018-04-15T11:24:24.807Z,33.43
2018-04-15T11:26:52.361Z,32.87
2018-04-15T11:29:19.863Z,38.60
2018-04-15T11:31:47.398Z,38.43
2018-04-15T11:34:15.020Z,37.63
2018-04-15T11:36:42.549Z,41.70
2018-04-15T11:39:10.083Z,41.53
2018-04-15T11:41:37.579Z,40.60
2018-04-15T11:44:05.089Z,40.87
2018-04-15T11:46:32.617Z,39.13
2018-04-15T11:49:00.119Z,39.97
2018-04-15T11:51:27.680Z,42.33
2018-04-15T11:53:55.200Z,42.07
2018-04-15T11:56:22.778Z,41.20
2018-04-15T11:58:50.374Z,40.13
2018-04-15T12:01:17.874Z,39.33
2018-04-15T12:03:45.388Z,37.30
2018-04-15T12:06:12.891Z,38.17
2018-04-15T12:08:40.438Z,34.83
2018-04-15T12:11:07.946Z,37.60
2018-04-15T12:13:35.464Z,36.10
2018-04-15T12:16:02.998Z,37.00
2018-04-15T12:18:30.498Z,36.73
2018-04-15T12:20:58.007Z,35.60
2018-04-15T12:23:25.533Z,33.73
2018-04-15T12:25:53.035Z,33.93
2018-04-15T12:28:20.542Z,33.90
2018-04-15T12:30:48.117Z,36.50
2018-04-15T12:33:15.619Z,32.20
2018-04-15T12:35:43.158Z,31.23
2018-04-15T12:38:10.691Z,30.70
2018-04-15T12:40:38.219Z,34.53
2018-04-15T12:43:05.722Z,34.83
2018-04-15T12:45:33.281Z,35.10
2018-04-15T12:48:00.787Z,35.40
2018-04-15T12:50:28.283Z,36.37
2018-04-15T12:52:55.832Z,37.63
2018-04-15T12:55:24.108Z,34.23
2018-04-15T12:57:52.372Z,34.70
2018-04-15T13:00:20.104Z,35.47
2018-04-15T13:02:47.610Z,34.90
2018-04-15T13:05:15.128Z,35.73
2018-04-15T13:07:42.646Z,36.10
2018-04-15T13:10:10.151Z,34.90
2018-04-15T13:12:37.650Z,34.40
2018-04-15T13:15:06.002Z,32.43
2018-04-15T13:17:33.519Z,32.13
2018-04-15T13:20:01.819Z,31.70
2018-04-15T13:22:29.331Z,32.63
2018-04-15T13:24:57.610Z,32.03
2018-04-15T13:27:25.211Z,32.33
2018-04-15T13:29:52.759Z,31.77
2018-04-15T13:32:20.271Z,31.33
2018-04-15T13:34:47.878Z,32.47
2018-04-15T13:37:15.371Z,31.77
2018-04-15T13:39:42.885Z,31.90
2018-04-15T13:42:10.387Z,29.60
2018-04-15T13:44:37.947Z,30.63
2018-04-15T13:47:05.459Z,29.07
2018-04-15T13:49:33.744Z,30.07
2018-04-15T13:52:02.045Z,29.50
2018-04-15T13:54:29.555Z,27.23
2018-04-15T13:56:57.059Z,27.47
2018-04-15T13:59:25.371Z,26.90
2018-04-15T14:01:52.886Z,27.93
2018-04-15T14:04:20.389Z,27.70
2018-04-15T14:06:47.948Z,29.07
2018-04-15T14:09:15.455Z,34.13
2018-04-15T14:11:42.958Z,32.03
2018-04-15T14:14:10.494Z,31.70
2018-04-15T14:16:37.995Z,31.77
2018-04-15T14:19:05.505Z,30.17
2018-04-15T14:21:33.787Z,28.97
2018-04-15T14:24:02.057Z,30.73
2018-04-15T14:26:29.610Z,29.07
2018-04-15T14:28:57.131Z,26.63
2018-04-15T14:31:24.652Z,27.60
2018-04-15T14:33:53.016Z,27.83
2018-04-15T14:36:20.541Z,27.53
2018-04-15T14:38:48.039Z,22.97
2018-04-15T14:41:15.553Z,21.80
2018-04-15T14:43:43.055Z,22.60
2018-04-15T14:46:10.599Z,21.93
2018-04-15T14:48:38.098Z,21.60
2018-04-15T14:51:06.363Z,20.73
2018-04-15T14:53:33.962Z,20.30
2018-04-15T14:56:01.463Z,17.53
2018-04-15T14:58:28.976Z,16.60
2018-04-15T15:00:56.527Z,16.77
2018-04-15T15:03:24.027Z,17.67
2018-04-15T15:05:51.529Z,17.50
2018-04-15T15:08:19.818Z,17.13
2018-04-15T15:10:47.314Z,17.80
2018-04-15T15:13:15.580Z,17.17
2018-04-15T15:15:43.099Z,18.20
2018-04-15T15:18:10.606Z,16.33
2018-04-15T15:20:38.154Z,17.10
2018-04-15T15:23:05.658Z,18.00
2018-04-15T15:25:33.167Z,16.33
2018-04-15T15:28:00.727Z,14.47
2018-04-15T15:30:28.227Z,15.60
2018-04-15T15:32:55.728Z,15.70
2018-04-15T15:35:25.091Z,15.97
2018-04-15T15:37:52.601Z,16.43
2018-04-15T15:40:23.135Z,15.77
2018-04-15T15:42:52.725Z,16.27
2018-04-15T15:45:20.631Z,16.70
2018-04-15T15:47:55.777Z,16.33
2018-04-15T15:50:23.319Z,16.33
2018-04-15T15:52:51.598Z,16.03
2018-04-15T15:55:19.127Z,16.67
2018-04-15T15:57:46.628Z,14.90
2018-04-15T16:00:14.157Z,17.83
2018-04-15T16:02:43.909Z,17.47
2018-04-15T16:05:11.435Z,17.20
2018-04-15T16:07:38.940Z,19.10
2018-04-15T16:10:06.481Z,19.03
2018-04-15T16:12:34.779Z,21.50
2018-04-15T16:15:02.279Z,24.87
2018-04-15T16:17:29.783Z,25.67
2018-04-15T16:19:57.363Z,27.63
2018-04-15T16:22:24.867Z,30.13
2018-04-15T16:24:52.375Z,31.50
2018-04-15T16:27:19.951Z,31.03
2018-04-15T16:29:47.446Z,30.00
2018-04-15T16:32:14.956Z,30.43
2018-04-15T16:34:42.482Z,28.33
2018-04-15T16:37:10.745Z,29.97
2018-04-15T16:39:38.324Z,30.63
2018-04-15T16:42:05.826Z,31.20
2018-04-15T16:44:33.323Z,32.17
2018-04-15T16:47:00.837Z,29.57
2018-04-15T16:49:28.355Z,27.17
2018-04-15T16:51:55.907Z,26.80
2018-04-15T16:54:23.410Z,26.57
2018-04-15T16:56:50.991Z,27.20
2018-04-15T16:59:18.487Z,27.47
2018-04-15T17:01:45.993Z,28.73
2018-04-15T17:04:13.531Z,27.53
2018-04-15T17:06:41.799Z,27.03
2018-04-15T17:09:09.307Z,27.20
2018-04-15T17:11:37.527Z,26.97
2018-04-15T17:14:05.034Z,27.47
2018-04-15T17:16:32.543Z,25.00
2018-04-15T17:19:00.351Z,24.80
2018-04-15T17:21:27.883Z,22.80
2018-04-15T17:23:55.394Z,21.73
2018-04-15T17:26:23.303Z,19.57
2018-04-15T17:28:50.800Z,19.13
2018-04-15T17:31:18.297Z,19.57
2018-04-15T17:33:45.835Z,20.20
2018-04-15T17:36:13.335Z,20.33
2018-04-15T17:38:40.841Z,21.10
2018-04-15T17:41:08.411Z,21.20
2018-04-15T17:43:35.928Z,21.37
2018-04-15T17:46:03.438Z,20.37
2018-04-15T17:48:30.980Z,21.17
2018-04-15T17:50:58.511Z,21.80
2018-04-15T17:53:26.070Z,21.73
2018-04-15T17:55:53.567Z,21.40
2018-04-15T17:58:21.838Z,20.87
2018-04-15T18:00:50.149Z,20.73
2018-04-15T18:03:17.651Z,22.43
2018-04-15T18:05:45.151Z,21.73
2018-04-15T18:08:12.715Z,23.03
2018-04-15T18:10:40.214Z,21.10
2018-04-15T18:13:07.712Z,20.50
2018-04-15T18:15:36.010Z,21.50
2018-04-15T18:18:04.271Z,21.13
2018-04-15T18:20:31.770Z,20.43
2018-04-15T18:22:59.278Z,21.53
2018-04-15T18:25:26.775Z,21.20
2018-04-15T18:27:54.344Z,20.50
2018-04-15T18:30:21.847Z,21.30
2018-04-15T18:32:49.382Z,22.10
2018-04-15T18:35:17.035Z,20.70
2018-04-15T18:37:44.543Z,22.93
2018-04-15T18:40:14.055Z,22.57
2018-04-15T18:42:41.590Z,22.40
2018-04-15T18:45:09.091Z,23.63
2018-04-15T18:47:37.367Z,22.23
2018-04-15T18:50:04.950Z,21.13
2018-04-15T18:52:32.398Z,23.17
2018-04-15T18:55:00.927Z,23.33
2018-04-15T18:57:28.431Z,22.80
2018-04-15T18:59:55.929Z,21.93
2018-04-15T19:02:23.467Z,21.57
2018-04-15T19:04:51.056Z,22.13
2018-04-15T19:07:18.551Z,23.00
2018-04-15T19:09:46.099Z,22.77
2018-04-15T19:12:13.652Z,22.37
2018-04-15T19:14:41.127Z,23.50
2018-04-15T19:17:08.636Z,23.83
2018-04-15T19:19:36.896Z,23.97
2018-04-15T19:22:04.458Z,23.53
2018-04-15T19:24:32.727Z,23.07
2018-04-15T19:27:00.508Z,24.93
2018-04-15T19:29:28.059Z,21.53
2018-04-15T19:31:55.571Z,22.97
2018-04-15T19:34:23.066Z,25.43
2018-04-15T19:36:50.586Z,25.90
2018-04-15T19:39:18.095Z,26.83
2018-04-15T19:41:45.614Z,27.67
2018-04-15T19:44:13.147Z,28.73
2018-04-15T19:46:40.654Z,32.30
2018-04-15T19:49:09.147Z,36.07
2018-04-15T19:51:36.772Z,36.37
2018-04-15T19:54:04.258Z,38.53
2018-04-15T19:56:31.803Z,39.50
2018-04-15T19:58:59.310Z,42.63
2018-04-15T20:01:26.802Z,39.87
2018-04-15T20:03:54.325Z,41.00
2018-04-15T20:06:21.835Z,38.87
2018-04-15T20:08:49.345Z,43.77
2018-04-15T20:11:16.888Z,44.07
2018-04-15T20:13:44.382Z,42.37
2018-04-15T20:16:11.887Z,44.03
2018-04-15T20:18:39.399Z,42.07
2018-04-15T20:21:07.688Z,42.30
2018-04-15T20:23:35.283Z,43.97
2018-04-15T20:26:02.787Z,41.07
2018-04-15T20:28:30.293Z,50.20
2018-04-15T20:30:57.847Z,50.07
2018-04-15T20:33:25.347Z,55.73
2018-04-15T20:35:52.843Z,68.20
2018-04-15T20:38:21.142Z,56.73
2018-04-15T20:40:48.646Z,48.50
2018-04-15T20:43:16.181Z,51.50
2018-04-15T20:45:43.755Z,54.77
2018-04-15T20:48:11.263Z,55.50
2018-04-15T20:50:38.761Z,56.67
2018-04-15T20:53:06.268Z,52.40
2018-04-15T20:55:33.771Z,54.70
2018-04-15T20:58:01.306Z,58.60
2018-04-15T21:00:28.816Z,55.73
2018-04-15T21:02:56.334Z,54.20
2018-04-15T21:05:23.906Z,56.60
